createdAt,value
2019-02-15T13:13:27.747Z,1.93
2019-02-15T13:15:58.465Z,1.83
2019-02-15T13:18:29.099Z,2.00
2019-02-15T13:20:59.851Z,2.20
2019-02-15T13:23:30.465Z,1.90
2019-02-15T13:26:08.181Z,1.80
2019-02-15T13:28:33.368Z,2.33
2019-02-15T13:31:03.971Z,1.90
2019-02-15T13:33:34.777Z,2.43
2019-02-15T13:36:05.819Z,2.50
2019-02-15T13:38:36.532Z,2.23
2019-02-15T13:41:13.933Z,2.27
2019-02-15T13:43:44.498Z,1.83
2019-02-15T13:46:16.888Z,2.30
2019-02-15T13:48:47.818Z,2.23
2019-02-15T13:51:18.424Z,2.17
2019-02-15T13:53:48.923Z,1.80
2019-02-15T13:56:19.623Z,2.80
2019-02-15T13:58:50.292Z,2.40
2019-02-15T14:01:21.092Z,1.80
2019-02-15T14:03:51.695Z,2.23
2019-02-15T14:06:22.395Z,2.60
2019-02-15T14:08:53.014Z,1.93
2019-02-15T14:11:23.585Z,2.10
2019-02-15T14:13:54.107Z,2.13
2019-02-15T14:16:24.783Z,1.80
2019-02-15T14:19:02.875Z,1.97
2019-02-15T14:21:33.549Z,2.00
2019-02-15T14:24:06.982Z,1.70
2019-02-15T14:26:40.191Z,2.30
2019-02-15T14:29:10.837Z,2.30
2019-02-15T14:31:41.452Z,1.80
2019-02-15T14:34:12.067Z,1.73
2019-02-15T14:36:42.931Z,1.97
2019-02-15T14:39:13.542Z,1.60
2019-02-15T14:41:48.787Z,1.87
2019-02-15T14:44:20.485Z,2.03
2019-02-15T14:46:51.027Z,2.20
2019-02-15T14:49:23.164Z,1.80
2019-02-15T14:51:53.903Z,1.90
2019-02-15T14:54:28.946Z,1.90
2019-02-15T14:56:59.867Z,2.10
2019-02-15T14:59:30.432Z,1.87
2019-02-15T15:02:01.072Z,1.93
2019-02-15T15:04:31.688Z,1.90
2019-02-15T15:07:02.652Z,2.03
2019-02-15T15:09:33.192Z,2.00
2019-02-15T15:12:03.918Z,2.70
2019-02-15T15:14:39.910Z,2.30
2019-02-15T15:17:10.491Z,1.80
2019-02-15T15:19:41.906Z,2.60
2019-02-15T15:22:12.510Z,2.20
2019-02-15T15:24:43.112Z,1.90
2019-02-15T15:27:13.777Z,1.93
2019-02-15T15:29:46.989Z,2.20
2019-02-15T15:32:23.829Z,1.90
2019-02-15T15:34:59.048Z,2.03
2019-02-15T15:37:29.797Z,2.10
2019-02-15T15:40:00.392Z,2.00
2019-02-15T15:42:30.937Z,2.70
2019-02-15T15:45:01.511Z,2.40
2019-02-15T15:47:33.298Z,2.17
2019-02-15T15:50:04.563Z,1.87
2019-02-15T15:52:35.141Z,2.13
2019-02-15T15:55:05.895Z,2.10
2019-02-15T15:57:36.508Z,2.40
2019-02-15T16:00:10.335Z,2.40
2019-02-15T16:02:40.947Z,3.80
2019-02-15T16:05:13.915Z,2.23
2019-02-15T16:07:47.395Z,2.30
2019-02-15T16:10:17.987Z,2.53
2019-02-15T16:12:50.226Z,2.97
2019-02-15T16:15:20.802Z,2.33
2019-02-15T16:17:51.543Z,2.33
2019-02-15T16:20:33.153Z,2.90
2019-02-15T16:23:06.739Z,2.30
2019-02-15T16:25:37.304Z,2.50
2019-02-15T16:28:07.835Z,2.63
2019-02-15T16:30:41.836Z,2.20
2019-02-15T16:33:14.266Z,3.17
2019-02-15T16:35:44.922Z,2.60
2019-02-15T16:38:15.602Z,2.60
2019-02-15T16:40:49.325Z,2.80
2019-02-15T16:43:19.935Z,2.50
2019-02-15T16:45:50.777Z,2.37
2019-02-15T16:48:21.387Z,3.30
2019-02-15T16:50:51.901Z,1.80
2019-02-15T16:53:22.611Z,2.63
2019-02-15T16:55:53.349Z,1.90
2019-02-15T16:58:24.000Z,2.80
2019-02-15T17:00:54.643Z,2.23
2019-02-15T17:03:25.307Z,1.97
2019-02-15T17:05:55.993Z,1.97
2019-02-15T17:08:28.041Z,2.70
2019-02-15T17:10:58.704Z,2.30
2019-02-15T17:13:29.308Z,2.50
2019-02-15T17:15:59.847Z,2.47
2019-02-15T17:18:30.607Z,2.40
2019-02-15T17:21:01.200Z,2.40
2019-02-15T17:23:31.993Z,2.13
2019-02-15T17:26:02.783Z,2.20
2019-02-15T17:28:33.671Z,2.00
2019-02-15T17:31:04.540Z,1.97
2019-02-15T17:33:35.083Z,2.37
2019-02-15T17:36:05.639Z,2.70
2019-02-15T17:38:36.323Z,2.60
2019-02-15T17:41:06.934Z,2.33
2019-02-15T17:43:37.555Z,2.33
2019-02-15T17:46:08.290Z,2.30
2019-02-15T17:48:38.964Z,3.13
2019-02-15T17:51:09.953Z,2.73
2019-02-15T17:53:40.607Z,2.30
2019-02-15T17:56:11.427Z,2.63
2019-02-15T17:58:42.091Z,2.60
2019-02-15T18:01:12.736Z,2.60
2019-02-15T18:03:43.603Z,2.80
2019-02-15T18:06:14.212Z,3.33
2019-02-15T18:08:44.870Z,2.50
2019-02-15T18:11:15.504Z,2.50
2019-02-15T18:13:46.084Z,2.27
2019-02-15T18:16:16.712Z,2.50
2019-02-15T18:18:52.607Z,2.17
2019-02-15T18:21:25.189Z,2.63
2019-02-15T18:23:55.801Z,2.90
2019-02-15T18:26:26.401Z,2.60
2019-02-15T18:28:56.983Z,3.07
2019-02-15T18:31:27.539Z,2.90
2019-02-15T18:33:58.118Z,2.80
2019-02-15T18:36:28.732Z,2.67
2019-02-15T18:38:59.554Z,2.80
2019-02-15T18:41:30.396Z,2.67
2019-02-15T18:44:00.967Z,3.03
2019-02-15T18:46:31.560Z,2.70
2019-02-15T18:49:02.139Z,3.27
2019-02-15T18:51:32.727Z,3.00
2019-02-15T18:54:03.390Z,3.50
2019-02-15T18:56:34.005Z,3.60
2019-02-15T18:59:05.023Z,3.67
2019-02-15T19:01:35.782Z,3.20
2019-02-15T19:04:06.543Z,3.40
2019-02-15T19:06:37.165Z,3.10
2019-02-15T19:09:09.089Z,3.00
2019-02-15T19:11:43.871Z,3.83
2019-02-15T19:14:14.571Z,3.40
2019-02-15T19:16:45.228Z,4.47
2019-02-15T19:19:17.998Z,3.60
2019-02-15T19:21:49.882Z,3.63
2019-02-15T19:24:22.324Z,3.77
2019-02-15T19:26:52.933Z,3.80
2019-02-15T19:29:23.427Z,4.00
2019-02-15T19:31:54.424Z,3.23
2019-02-15T19:34:25.192Z,2.83
2019-02-15T19:36:57.715Z,3.50
2019-02-15T19:39:28.501Z,4.03
2019-02-15T19:41:59.289Z,3.40
2019-02-15T19:44:29.923Z,3.10
2019-02-15T19:47:00.892Z,3.10
2019-02-15T19:49:38.624Z,3.07
2019-02-15T19:52:09.145Z,3.55
2019-02-15T19:54:39.748Z,3.55
2019-02-15T19:57:10.797Z,3.70
2019-02-15T19:59:41.768Z,3.80
2019-02-15T20:02:16.231Z,3.40
2019-02-15T20:04:46.160Z,3.30
2019-02-15T20:07:22.585Z,2.97
2019-02-15T20:09:53.459Z,3.50
2019-02-15T20:12:23.976Z,3.63
2019-02-15T20:14:54.710Z,3.10
2019-02-15T20:17:25.489Z,4.13
2019-02-15T20:19:56.146Z,3.07
2019-02-15T20:22:33.812Z,4.03
2019-02-15T20:25:06.443Z,3.97
2019-02-15T20:27:41.303Z,3.63
2019-02-15T20:30:16.439Z,4.00
2019-02-15T20:33:13.226Z,3.93
2019-02-15T20:35:58.175Z,4.03
2019-02-15T20:38:32.204Z,3.50
2019-02-15T20:41:06.465Z,4.00
2019-02-15T20:43:37.799Z,3.60
2019-02-15T20:46:09.105Z,3.45
2019-02-15T20:48:42.108Z,4.17
2019-02-15T20:51:14.987Z,3.53
2019-02-15T21:04:03.212Z,4.10
2019-02-15T21:06:33.817Z,4.20
2019-02-15T21:09:06.044Z,3.67
2019-02-15T21:11:36.714Z,4.17
2019-02-15T21:14:09.027Z,4.12
2019-02-15T21:16:39.885Z,3.90
2019-02-15T21:19:15.863Z,3.90
2019-02-15T21:21:48.602Z,3.90
2019-02-15T21:24:19.270Z,3.83
2019-02-15T21:26:49.957Z,4.57
2019-02-15T21:49:27.332Z,3.60
